Terminal Aerodrome Forecast
Issued by NWS Binghamton, NY

Home | Current Version | Previous Version | Text Only | Print | Product List | Glossary On
Versions: 1 2 3 4 5 6 7 8 9 10 11 12 13 14 15
000
FTUS41 KBGM 302300
TAFSYR
TAF
KSYR 302332Z 0100/0124 05006KT P6SM SCT040 BKN080
      TEMPO 0100/0102 -SHRA BKN040
     FM010600 VRB03KT 5SM BR SCT025 BKN045
      TEMPO 0109/0113 2SM BR BKN025
     FM011500 09003KT P6SM BKN040=

USA.gov is the U.S. government's official web portal to all federal, state and local government web resources and services.